Time;durP1;ratioP1;P1;durP2;ratioP2;P2;SDS_P1;SDS_P2;PMS_P1;PMS_P2;Temp;Humidity;BMP_temperature;BMP_pressure;BME280_temperature;BME280_humidity;BME280_pressure;Samples;Min_cycle;Max_cycle;Signal;HPM_P1;HPM_P2
2024/01/27 00:01:02;;;;;;;5.83;2.60;;;4.50;74.50;;;6.37;54.57;99310.59;5070945;28;20048;-66
2024/01/27 00:03:30;;;;;;;3.63;2.10;;;4.50;73.90;;;6.33;54.47;99307.31;5069693;28;20052;-66
2024/01/27 00:05:58;;;;;;;3.30;2.40;;;4.40;74.50;;;6.30;55.08;99312.75;5069773;28;20059;-67
2024/01/27 00:08:26;;;;;;;4.13;1.97;;;4.30;74.30;;;6.29;55.01;99314.56;5071183;28;20036;-67
2024/01/27 00:10:54;;;;;;;4.00;1.93;;;4.30;74.70;;;6.26;54.93;99317.41;5071106;28;20028;-68
2024/01/27 00:13:21;;;;;;;4.70;2.13;;;4.30;75.00;;;6.22;54.44;99313.25;5070511;28;20037;-68
2024/01/27 00:15:49;;;;;;;4.70;2.23;;;4.20;75.00;;;6.18;54.75;99329.38;5069679;28;20066;-68
2024/01/27 00:18:17;;;;;;;4.17;2.43;;;4.10;75.30;;;6.16;54.82;99329.47;5069826;28;20526;-68
2024/01/27 00:20:44;;;;;;;4.83;2.23;;;4.10;75.40;;;6.09;55.09;99329.00;5069829;28;20148;-68
2024/01/27 00:23:12;;;;;;;4.00;2.40;;;4.00;75.70;;;6.06;54.63;99328.31;5069508;28;20045;-67
2024/01/27 00:25:40;;;;;;;7.67;2.73;;;4.00;76.10;;;6.06;54.82;99333.63;5069204;28;20458;-67
2024/01/27 00:28:07;;;;;;;2.97;2.00;;;4.00;75.50;;;6.04;55.15;99343.44;5071039;28;20412;-67
2024/01/27 00:30:35;;;;;;;3.20;2.20;;;4.00;75.50;;;6.02;55.01;99340.03;5070597;28;20389;-67
2024/01/27 00:33:03;;;;;;;5.63;2.00;;;4.00;75.20;;;6.01;55.13;99336.56;5074004;28;20041;-68
2024/01/27 00:35:30;;;;;;;3.93;2.57;;;4.10;75.10;;;6.01;54.70;99333.03;5074689;28;20068;-67
2024/01/27 00:37:58;;;;;;;6.67;2.23;;;4.10;74.80;;;5.98;55.40;99336.72;5074899;28;20499;-67
2024/01/27 00:40:26;;;;;;;7.67;2.30;;;4.10;75.10;;;5.97;55.64;99336.81;5074806;28;20052;-68
2024/01/27 00:42:54;;;;;;;5.73;2.53;;;4.10;75.30;;;5.94;54.83;99334.31;5074097;28;20514;-67
2024/01/27 00:45:27;;;;;;;4.10;2.90;;;4.00;74.60;;;5.87;55.10;99334.69;5065262;28;20088;-67
2024/01/27 00:47:55;;;;;;;7.65;3.03;;;3.90;74.80;;;5.79;55.36;99331.63;5073070;28;20040;-67
2024/01/27 00:50:23;;;;;;;6.97;2.67;;;3.80;75.70;;;5.70;55.38;99338.31;5073483;28;20051;-67
2024/01/27 00:52:51;;;;;;;8.03;2.30;;;3.80;75.80;;;5.69;55.25;99333.09;5074268;28;20062;-68
2024/01/27 00:55:19;;;;;;;3.10;1.90;;;3.80;76.10;;;5.76;55.59;99333.59;5074145;28;20448;-67
2024/01/27 00:57:47;;;;;;;3.20;2.20;;;3.90;76.00;;;5.79;55.48;99336.06;5074769;28;20447;-67
2024/01/27 01:00:15;;;;;;;5.10;2.33;;;3.90;75.70;;;5.78;55.50;99340.50;5074442;28;20492;-68
2024/01/27 01:02:43;;;;;;;6.13;2.37;;;3.90;75.70;;;5.78;54.68;99337.88;5074091;28;20045;-68
2024/01/27 01:05:11;;;;;;;4.17;2.50;;;3.90;75.70;;;5.76;55.39;99337.09;5073843;28;20060;-68
2024/01/27 01:07:38;;;;;;;5.57;2.47;;;3.80;75.90;;;5.75;55.25;99340.66;5074180;28;20048;-67
2024/01/27 01:10:07;;;;;;;4.77;2.30;;;3.80;75.60;;;5.74;55.68;99339.00;5074379;28;20044;-68
2024/01/27 01:12:34;;;;;;;3.67;2.23;;;3.80;75.20;;;5.73;55.24;99340.75;5074005;28;20044;-67
2024/01/27 01:15:02;;;;;;;4.20;2.20;;;3.80;76.00;;;5.76;55.73;99336.22;5074093;28;20048;-67
2024/01/27 01:17:30;;;;;;;3.57;2.03;;;3.90;75.80;;;5.78;55.76;99343.16;5073911;28;20115;-68
2024/01/27 01:19:57;;;;;;;4.43;2.30;;;3.90;75.40;;;5.75;55.36;99347.75;5074045;28;20515;-68
2024/01/27 01:22:25;;;;;;;5.63;3.07;;;3.80;75.30;;;5.72;55.59;99351.44;5073825;28;20060;-68
2024/01/27 01:24:53;;;;;;;5.83;2.03;;;3.80;75.60;;;5.76;55.63;99354.72;5073437;28;20409;-68
2024/01/27 01:27:21;;;;;;;4.27;3.63;;;3.90;75.70;;;5.72;54.82;99347.00;5072520;28;20049;-68
2024/01/27 01:29:49;;;;;;;4.57;2.20;;;3.80;75.20;;;5.70;54.85;99343.59;5066140;28;20047;-68
2024/01/27 01:32:17;;;;;;;5.97;2.53;;;3.70;75.50;;;5.64;54.94;99346.59;5073963;28;20047;-68
2024/01/27 01:34:46;;;;;;;5.00;2.67;;;3.60;75.60;;;5.57;55.02;99344.41;5073022;28;20044;-69
2024/01/27 01:37:14;;;;;;;4.73;2.20;;;3.50;76.70;;;5.53;55.99;99362.22;5073611;28;20060;-68
2024/01/27 01:39:41;;;;;;;4.73;2.83;;;3.50;76.70;;;5.44;55.39;99353.00;5071831;28;20056;-68
2024/01/27 01:42:09;;;;;;;5.97;3.03;;;3.30;77.40;;;5.39;55.81;99367.41;5073742;28;20049;-68
2024/01/27 01:44:37;;;;;;;5.50;2.70;;;3.30;79.00;;;5.37;55.73;99361.34;5073342;28;20052;-68
2024/01/27 01:47:05;;;;;;;5.20;2.10;;;3.20;78.10;;;5.35;55.68;99363.22;5072541;28;20040;-69
2024/01/27 01:49:33;;;;;;;6.93;2.40;;;3.40;78.00;;;5.34;55.79;99372.97;5074027;28;20084;-68
2024/01/27 01:52:01;;;;;;;7.43;2.50;;;3.30;78.30;;;5.35;55.98;99371.16;5072377;28;20047;-68
2024/01/27 01:54:30;;;;;;;5.43;2.80;;;3.30;77.70;;;5.32;55.87;99375.69;5071952;28;20041;-68
2024/01/27 01:56:59;;;;;;;5.97;2.57;;;3.30;77.40;;;5.26;55.52;99368.09;5073480;28;20055;-69
2024/01/27 01:59:26;;;;;;;5.03;2.10;;;3.20;77.80;;;5.25;56.05;99374.34;5073508;28;20502;-68
2024/01/27 02:01:54;;;;;;;4.87;2.10;;;3.20;77.80;;;5.26;55.77;99377.81;5071935;28;20045;-68
2024/01/27 02:04:22;;;;;;;6.17;3.37;;;3.20;77.50;;;5.19;55.91;99376.44;5071729;28;20052;-68
2024/01/27 02:06:49;;;;;;;5.53;2.10;;;3.10;78.10;;;5.18;56.36;99385.31;5071837;28;20047;-68
2024/01/27 02:09:17;;;;;;;4.40;2.30;;;3.10;78.70;;;5.17;56.03;99383.59;5071078;28;20037;-68
2024/01/27 02:11:45;;;;;;;4.33;2.23;;;3.10;78.10;;;5.12;56.08;99386.50;5072960;28;20492;-68
2024/01/27 02:14:13;;;;;;;3.97;3.33;;;3.00;78.20;;;5.08;55.86;99380.53;5072852;28;20037;-68
2024/01/27 02:16:41;;;;;;;10.43;4.30;;;3.00;78.90;;;5.05;56.73;99390.41;5071627;28;20075;-68
2024/01/27 02:19:08;;;;;;;5.47;2.73;;;3.00;78.90;;;5.03;55.89;99390.50;5071959;28;20055;-68
2024/01/27 02:21:36;;;;;;;4.20;2.37;;;2.90;79.00;;;4.99;56.09;99388.13;5072951;28;20048;-68
2024/01/27 02:24:07;;;;;;;4.10;2.17;;;2.90;79.30;;;4.97;56.59;99400.53;5071477;28;20044;-68
2024/01/27 02:26:35;;;;;;;5.73;3.10;;;2.90;79.90;;;4.96;56.36;99401.47;5072714;28;20052;-68
2024/01/27 02:29:03;;;;;;;5.13;2.00;;;2.90;79.30;;;4.93;56.33;99405.13;5073001;28;20040;-69
2024/01/27 02:31:30;;;;;;;4.03;2.17;;;2.90;79.30;;;4.92;56.55;99416.59;5072782;28;20045;-68
2024/01/27 02:33:58;;;;;;;5.20;2.47;;;2.90;79.30;;;4.87;56.29;99416.88;5071097;28;20048;-68
2024/01/27 02:36:26;;;;;;;4.30;2.93;;;2.80;79.70;;;4.88;56.60;99420.34;5072630;28;20040;-68
2024/01/27 02:38:53;;;;;;;5.87;2.50;;;2.80;79.80;;;4.88;56.45;99415.06;5064397;28;20040;-68
2024/01/27 02:41:21;;;;;;;4.03;2.53;;;2.80;79.90;;;4.91;56.88;99421.03;5071128;28;20503;-68
2024/01/27 02:43:49;;;;;;;7.63;2.47;;;2.90;79.60;;;4.92;56.30;99421.88;5070971;28;20503;-68
2024/01/27 02:46:17;;;;;;;6.67;2.70;;;2.90;79.20;;;4.92;57.07;99419.25;5072135;28;20108;-69
2024/01/27 02:48:45;;;;;;;4.70;2.60;;;3.00;78.90;;;4.92;56.20;99412.22;5070753;28;20045;-68
2024/01/27 02:51:18;;;;;;;4.50;2.67;;;3.00;78.40;;;4.93;56.10;99405.97;5071262;28;20032;-68
2024/01/27 02:53:46;;;;;;;4.47;2.27;;;3.00;77.80;;;4.95;56.46;99415.63;5070381;28;20051;-68
2024/01/27 02:56:16;;;;;;;3.70;2.33;;;3.10;78.50;;;4.96;56.33;99412.03;5071852;28;20060;-68
2024/01/27 02:58:44;;;;;;;7.23;2.57;;;3.10;77.70;;;4.92;56.55;99409.56;5071131;28;20044;-67
2024/01/27 03:01:12;;;;;;;6.73;2.30;;;3.00;77.70;;;4.91;56.29;99413.13;5070347;28;20059;-68
2024/01/27 03:03:40;;;;;;;5.00;2.47;;;3.00;77.70;;;4.87;56.44;99419.50;5071899;28;20040;-67
2024/01/27 03:06:08;;;;;;;5.47;2.33;;;2.90;78.60;;;4.86;56.46;99412.50;5070632;28;20539;-68
2024/01/27 03:08:36;;;;;;;4.00;2.00;;;2.90;78.30;;;4.84;56.55;99419.66;5072056;28;20047;-68
2024/01/27 03:11:04;;;;;;;5.10;2.43;;;2.80;78.50;;;4.81;56.88;99417.19;5070715;28;20044;-67
2024/01/27 03:13:31;;;;;;;6.67;2.50;;;2.80;79.00;;;4.80;57.05;99425.19;5071431;28;20051;-68
2024/01/27 03:15:59;;;;;;;5.73;2.47;;;2.70;78.70;;;4.77;56.50;99428.84;5071707;28;20036;-67
2024/01/27 03:18:27;;;;;;;6.50;2.57;;;2.70;79.50;;;4.76;57.07;99416.56;5071474;28;20419;-67
2024/01/27 03:20:55;;;;;;;3.43;1.97;;;2.80;79.70;;;4.74;56.59;99424.56;5070382;28;20056;-68
2024/01/27 03:23:22;;;;;;;7.20;2.80;;;2.70;79.20;;;4.73;57.24;99422.03;5071276;28;20048;-67
2024/01/27 03:25:50;;;;;;;7.07;2.17;;;2.70;79.60;;;4.72;56.53;99417.69;5071682;28;20048;-68
2024/01/27 03:28:17;;;;;;;4.10;2.50;;;2.70;79.10;;;4.69;56.97;99426.63;5071611;28;20408;-67
2024/01/27 03:30:45;;;;;;;4.27;2.43;;;2.70;79.30;;;4.69;57.16;99431.00;5071637;28;20041;-67
2024/01/27 03:33:13;;;;;;;5.97;2.37;;;2.70;79.20;;;4.66;57.04;99436.47;5069819;28;20527;-67
2024/01/27 03:35:41;;;;;;;4.47;2.03;;;2.70;79.10;;;4.64;56.52;99451.53;5071373;28;20044;-68
2024/01/27 03:38:08;;;;;;;6.73;2.83;;;2.70;79.50;;;4.65;56.77;99458.50;5070334;28;20411;-68
2024/01/27 03:40:36;;;;;;;9.23;2.30;;;2.60;78.70;;;4.64;56.21;99454.16;5070080;28;20048;-68
2024/01/27 03:43:04;;;;;;;7.23;2.40;;;2.60;79.00;;;4.65;56.59;99462.00;5071049;28;20040;-67
2024/01/27 03:45:31;;;;;;;4.50;2.30;;;2.60;78.70;;;4.62;56.50;99456.88;5070121;28;20044;-68
2024/01/27 03:47:59;;;;;;;4.63;2.57;;;2.60;78.70;;;4.63;56.66;99458.56;5071310;28;20087;-68
2024/01/27 03:50:27;;;;;;;6.00;2.40;;;2.60;78.70;;;4.62;56.68;99453.41;5071068;28;20044;-67
2024/01/27 03:52:54;;;;;;;5.03;2.03;;;2.60;78.50;;;4.61;56.33;99456.97;5070903;28;20055;-68
2024/01/27 03:55:22;;;;;;;2.97;2.57;;;2.60;78.90;;;4.64;56.79;99456.81;5070934;28;20032;-68
2024/01/27 03:57:50;;;;;;;7.80;2.87;;;2.70;78.50;;;4.66;56.30;99460.22;5071190;28;20040;-68
2024/01/27 04:00:18;;;;;;;6.00;2.17;;;2.70;77.80;;;4.64;56.68;99462.09;5071271;28;20051;-68
2024/01/27 04:02:45;;;;;;;6.73;2.90;;;2.70;77.80;;;4.61;56.58;99460.44;5052641;28;20057;-67
2024/01/27 04:05:13;;;;;;;6.73;2.50;;;2.70;78.10;;;4.61;56.62;99470.16;5070832;28;20055;-67
2024/01/27 04:07:41;;;;;;;4.60;2.23;;;2.70;78.50;;;4.60;56.72;99466.66;5069263;28;20044;-67
2024/01/27 04:10:10;;;;;;;4.43;2.53;;;2.70;78.70;;;4.61;57.00;99463.06;5071014;28;20048;-68
2024/01/27 04:12:38;;;;;;;6.13;2.03;;;2.70;78.70;;;4.62;56.74;99458.69;5069852;28;20492;-67
2024/01/27 04:15:06;;;;;;;5.60;2.90;;;2.70;78.40;;;4.60;56.37;99466.66;5070977;28;20041;-67
2024/01/27 04:17:34;;;;;;;6.07;2.30;;;2.70;78.60;;;4.60;56.52;99455.25;5071015;28;20059;-67
2024/01/27 04:20:01;;;;;;;5.90;2.10;;;2.70;78.90;;;4.61;56.71;99463.06;5070906;28;20514;-68
2024/01/27 04:22:29;;;;;;;8.27;2.73;;;2.70;78.10;;;4.60;56.34;99469.31;5069930;28;20136;-68
2024/01/27 04:24:57;;;;;;;9.47;3.47;;;2.70;78.20;;;4.60;56.20;99463.19;5069345;28;20059;-68
2024/01/27 04:27:26;;;;;;;3.97;2.40;;;2.70;78.20;;;4.61;56.52;99467.50;5069124;28;20053;-68
2024/01/27 04:29:54;;;;;;;7.17;2.30;;;2.70;78.00;;;4.61;57.04;99470.16;5069688;28;20071;-68
2024/01/27 04:32:22;;;;;;;5.97;2.43;;;2.70;77.50;;;4.60;56.06;99469.31;5052895;28;20044;-68
2024/01/27 04:34:50;;;;;;;4.10;1.90;;;2.70;77.70;;;4.59;56.98;99470.22;5070752;28;20041;-68
2024/01/27 04:37:17;;;;;;;3.30;2.17;;;2.70;77.80;;;4.61;56.46;99475.41;5070886;28;20056;-68
2024/01/27 04:39:45;;;;;;;10.63;2.63;;;2.70;77.90;;;4.60;56.67;99476.38;5070651;28;20044;-67
2024/01/27 04:42:13;;;;;;;5.07;2.50;;;2.70;77.80;;;4.60;56.79;99477.22;5070807;28;20045;-67
2024/01/27 04:44:41;;;;;;;5.50;2.27;;;2.70;77.80;;;4.59;56.36;99477.28;5068601;28;20053;-67
2024/01/27 04:47:09;;;;;;;5.43;1.97;;;2.70;77.30;;;4.57;56.12;99476.50;5069505;28;20055;-68
2024/01/27 04:49:37;;;;;;;6.13;2.07;;;2.60;77.70;;;4.53;56.41;99483.72;5070708;28;20044;-68
2024/01/27 04:52:05;;;;;;;6.90;2.07;;;2.50;77.90;;;4.50;56.90;99476.00;5070483;28;20044;-68
2024/01/27 04:54:33;;;;;;;6.53;2.20;;;2.50;78.60;;;4.49;56.35;99475.09;5068507;28;20040;-68
2024/01/27 04:57:01;;;;;;;5.93;2.23;;;2.50;78.60;;;4.48;56.97;99483.97;5070905;28;20071;-68
2024/01/27 04:59:28;;;;;;;5.77;2.50;;;2.50;78.60;;;4.49;56.75;99488.31;5070752;28;20404;-68
2024/01/27 05:01:56;;;;;;;3.43;1.90;;;2.50;78.30;;;4.50;56.66;99489.19;5070291;28;20432;-68
2024/01/27 05:04:26;;;;;;;6.37;2.00;;;2.60;78.10;;;4.51;56.26;99493.50;5070069;28;20412;-67
2024/01/27 05:06:55;;;;;;;4.83;2.00;;;2.60;77.80;;;4.49;56.47;99495.38;5070375;28;20049;-66
2024/01/27 05:09:23;;;;;;;3.93;2.60;;;2.60;77.70;;;4.46;56.95;99490.22;5082494;28;20045;-68
2024/01/27 05:11:53;;;;;;;5.40;2.40;;;2.50;78.10;;;4.48;56.86;99498.94;5069062;28;20040;-66
2024/01/27 05:14:21;;;;;;;4.37;3.50;;;2.60;78.10;;;4.50;56.72;99494.44;5070043;28;20056;-67
2024/01/27 05:16:49;;;;;;;5.83;2.30;;;2.60;78.30;;;4.50;56.62;99490.03;5070395;28;20045;-66
2024/01/27 05:19:17;;;;;;;4.60;1.90;;;2.60;77.90;;;4.51;57.08;99498.78;5074288;28;20048;-67
2024/01/27 05:21:45;;;;;;;5.43;2.47;;;2.70;77.90;;;4.49;57.19;99495.38;5074075;28;20534;-67
2024/01/27 05:24:13;;;;;;;6.97;3.00;;;2.60;77.90;;;4.49;56.62;99490.94;5073865;28;20496;-68
2024/01/27 05:26:41;;;;;;;3.87;2.40;;;2.60;78.10;;;4.48;56.86;99494.53;5073899;28;20051;-67
2024/01/27 05:29:08;;;;;;;10.10;3.33;;;2.60;77.80;;;4.48;56.94;99501.59;5073797;28;20044;-68
2024/01/27 05:31:36;;;;;;;4.57;2.00;;;2.60;77.90;;;4.46;56.94;99495.50;5072962;28;20040;-68
2024/01/27 05:34:04;;;;;;;3.47;2.30;;;2.50;77.60;;;4.41;56.79;99484.34;5071907;28;20492;-68
2024/01/27 05:36:32;;;;;;;7.17;2.10;;;2.40;78.50;;;4.40;57.36;99493.19;5073594;28;20048;-68
2024/01/27 05:39:00;;;;;;;5.00;2.00;;;2.40;78.60;;;4.39;56.59;99487.06;5072327;28;20414;-68
2024/01/27 05:41:30;;;;;;;4.90;1.87;;;2.50;78.70;;;4.38;56.83;99477.47;5073743;28;20041;-68
2024/01/27 05:43:58;;;;;;;2.70;2.37;;;2.40;77.90;;;4.34;57.37;99483.78;5071350;28;20063;-68
2024/01/27 05:46:26;;;;;;;6.43;1.90;;;2.40;78.70;;;4.31;56.89;99476.06;5073662;28;20075;-68
2024/01/27 05:49:00;;;;;;;5.60;2.30;;;2.30;78.90;;;4.31;56.98;99486.59;5073527;28;20055;-68
2024/01/27 05:51:30;;;;;;;8.77;2.37;;;2.40;78.90;;;4.31;56.87;99487.44;5073730;28;20051;-68
2024/01/27 05:53:58;;;;;;;4.53;2.23;;;2.40;78.70;;;4.33;57.40;99485.59;5072958;28;20067;-68
2024/01/27 05:56:25;;;;;;;3.73;2.07;;;2.40;78.30;;;4.33;56.78;99487.38;5073094;28;20051;-68
2024/01/27 05:58:53;;;;;;;5.40;2.70;;;2.40;78.00;;;4.31;56.43;99490.09;5072268;28;20071;-68
2024/01/27 06:01:21;;;;;;;6.10;2.23;;;2.50;78.10;;;4.32;56.68;99485.66;5073327;28;20055;-68
2024/01/27 06:03:49;;;;;;;5.77;3.23;;;2.40;77.70;;;4.30;56.88;99491.03;5071741;28;20045;-68
2024/01/27 06:06:16;;;;;;;6.13;2.20;;;2.40;77.70;;;4.29;56.56;99491.94;5073185;28;20044;-68
2024/01/27 06:08:44;;;;;;;8.67;2.27;;;2.40;77.90;;;4.27;56.90;99488.53;5072944;28;20052;-68
2024/01/27 06:11:12;;;;;;;4.27;2.23;;;2.40;77.70;;;4.23;57.15;99476.44;5072049;28;20033;-68
2024/01/27 06:13:40;;;;;;;6.00;2.60;;;2.30;78.10;;;4.23;57.23;99488.78;5072032;28;20519;-68
2024/01/27 06:16:09;;;;;;;8.40;2.30;;;2.30;78.60;;;4.21;56.80;99483.56;5071211;28;20499;-68
2024/01/27 06:18:37;;;;;;;7.07;2.10;;;2.30;78.60;;;4.16;56.37;99487.38;5072842;28;20056;-67
2024/01/27 06:21:06;;;;;;;5.53;2.10;;;2.20;78.40;;;4.11;56.69;99496.34;5072784;28;20049;-67
2024/01/27 06:23:34;;;;;;;4.93;2.10;;;2.10;79.10;;;4.10;56.41;99499.06;5072657;28;20045;-67
2024/01/27 06:26:09;;;;;;;5.70;2.90;;;2.10;79.10;;;4.05;56.59;99501.94;5071761;28;20040;-67
2024/01/27 06:28:36;;;;;;;4.30;2.40;;;2.10;79.10;;;4.02;56.91;99504.72;5071060;28;20049;-67
2024/01/27 06:31:05;;;;;;;5.70;2.67;;;2.00;78.90;;;3.97;57.06;99500.59;5072798;28;20056;-67
2024/01/27 06:33:34;;;;;;;5.40;2.57;;;2.00;79.10;;;3.94;56.77;99507.72;5071283;28;20415;-67
2024/01/27 06:36:02;;;;;;;9.60;4.77;;;1.90;79.30;;;3.90;56.69;99511.44;5071087;28;20040;-68
2024/01/27 06:38:31;;;;;;;4.70;3.50;;;1.90;79.60;;;3.88;57.45;99512.44;5072614;28;20518;-68
2024/01/27 06:40:59;;;;;;;7.77;3.60;;;1.80;78.90;;;3.80;56.93;99509.28;5072580;28;20037;-68
2024/01/27 06:43:26;;;;;;;9.30;5.10;;;1.60;79.80;;;3.74;57.03;99508.66;5072171;28;20044;-68
2024/01/27 06:45:56;;;;;;;8.67;4.80;;;1.60;81.10;;;3.74;57.40;99507.78;5070374;28;20040;-67
2024/01/27 06:48:26;;;;;;;10.37;4.23;;;1.60;81.10;;;3.68;57.46;99508.97;5071024;28;20496;-67
2024/01/27 06:50:54;;;;;;;5.60;3.10;;;1.60;80.60;;;3.61;57.30;99510.16;5072562;28;20400;-67
2024/01/27 06:53:22;;;;;;;8.00;3.13;;;1.50;81.40;;;3.60;57.66;99510.25;5072131;28;20036;-67
2024/01/27 06:55:50;;;;;;;10.10;3.13;;;1.50;81.50;;;3.57;57.69;99507.72;5072192;28;20045;-68
2024/01/27 06:58:17;;;;;;;5.10;3.37;;;1.40;81.60;;;3.57;57.94;99513.00;5072087;28;20048;-67
2024/01/27 07:00:45;;;;;;;6.93;3.03;;;1.40;81.90;;;3.55;57.24;99513.09;5071890;28;20033;-67
2024/01/27 07:03:13;;;;;;;5.90;2.60;;;1.40;82.30;;;3.57;57.77;99519.16;5071819;28;20048;-67
2024/01/27 07:05:41;;;;;;;3.60;2.60;;;1.50;82.60;;;3.58;57.69;99515.56;5072076;28;20044;-68
2024/01/27 07:08:09;;;;;;;4.20;2.73;;;1.50;83.10;;;3.61;57.89;99517.22;5072094;28;20369;-68
2024/01/27 07:10:37;;;;;;;10.23;3.00;;;1.60;81.60;;;3.61;58.08;99520.72;5087405;28;20051;-67
2024/01/27 07:13:08;;;;;;;3.73;2.40;;;1.60;81.50;;;3.61;57.53;99525.97;5069529;28;20040;-70
2024/01/27 07:15:37;;;;;;;7.23;2.97;;;1.60;81.70;;;3.63;57.32;99518.84;5072135;28;20040;-68
2024/01/27 07:18:05;;;;;;;6.50;3.30;;;1.60;81.80;;;3.64;58.02;99527.59;5072157;28;20416;-71
2024/01/27 07:20:33;;;;;;;7.60;2.80;;;1.60;82.10;;;3.64;58.04;99525.81;5070563;28;20419;-69
2024/01/27 07:23:01;;;;;;;6.83;3.20;;;1.60;82.50;;;3.65;58.28;99530.16;5071423;28;20515;-71
2024/01/27 07:25:29;;;;;;;8.63;3.40;;;1.70;82.10;;;3.67;57.97;99532.75;5071604;28;20045;-69
2024/01/27 07:27:57;;;;;;;6.47;2.93;;;1.70;82.50;;;3.70;57.93;99529.94;5071485;28;20052;-68
2024/01/27 07:30:24;;;;;;;6.90;3.70;;;1.70;82.40;;;3.73;58.12;99528.03;5071649;28;20040;-69
2024/01/27 07:32:52;;;;;;;5.30;2.50;;;1.70;82.00;;;3.76;58.04;99537.56;5071424;28;20040;-69
2024/01/27 07:35:20;;;;;;;5.63;2.90;;;1.80;82.00;;;3.78;58.33;99533.09;5070001;28;20045;-71
2024/01/27 07:37:47;;;;;;;6.70;2.70;;;1.80;82.00;;;3.80;58.48;99541.78;5070397;28;20187;-70
2024/01/27 07:40:15;;;;;;;8.00;2.83;;;1.80;82.00;;;3.82;58.02;99539.06;5071281;28;20040;-68
2024/01/27 07:42:43;;;;;;;7.17;2.53;;;1.80;82.00;;;3.85;58.20;99534.50;5070711;28;20051;-68
2024/01/27 07:45:10;;;;;;;5.20;2.90;;;1.90;82.10;;;3.88;58.04;99537.00;5071200;28;20055;-69
2024/01/27 07:47:38;;;;;;;4.60;2.33;;;2.00;81.80;;;3.91;57.89;99531.56;5071197;28;20059;-69
2024/01/27 07:50:06;;;;;;;6.93;3.47;;;2.00;81.60;;;3.93;58.15;99537.63;5070883;28;20036;-69
2024/01/27 07:52:34;;;;;;;5.23;3.40;;;2.10;81.30;;;3.94;57.90;99541.13;5071185;28;20036;-70
2024/01/27 07:55:02;;;;;;;37.40;14.07;;;2.10;81.30;;;3.98;58.64;99529.50;5070606;28;20040;-71
2024/01/27 07:57:30;;;;;;;15.53;7.73;;;2.10;81.40;;;4.00;58.47;99527.66;5071377;28;20479;-68
2024/01/27 07:59:58;;;;;;;31.77;13.77;;;2.10;81.20;;;3.99;58.24;99533.84;5071259;28;20055;-70
2024/01/27 08:02:26;;;;;;;42.17;20.87;;;2.10;82.30;;;4.02;58.47;99531.06;5071257;28;20415;-70
2024/01/27 08:04:54;;;;;;;26.67;14.93;;;2.20;81.50;;;4.07;58.34;99528.19;5069421;28;20044;-69
2024/01/27 08:07:21;;;;;;;40.20;23.23;;;2.20;81.50;;;4.11;58.65;99528.00;5071009;28;20043;-69
2024/01/27 08:09:49;;;;;;;37.80;20.70;;;2.30;81.50;;;4.17;58.43;99534.75;5067338;28;20044;-71
2024/01/27 08:12:17;;;;;;;10.37;7.50;;;2.40;81.30;;;4.23;58.75;99526.53;5069659;28;20049;-71
2024/01/27 08:14:44;;;;;;;6.40;3.87;;;2.50;81.00;;;4.26;58.37;99522.88;5064141;28;20488;-70
2024/01/27 08:17:13;;;;;;;10.33;4.53;;;2.50;80.70;;;4.30;58.53;99521.81;5064017;28;20146;-71
2024/01/27 08:19:41;;;;;;;13.77;4.03;;;2.60;80.60;;;4.35;58.69;99519.81;5070743;28;20088;-71
2024/01/27 08:22:09;;;;;;;9.27;4.13;;;2.60;80.60;;;4.41;58.04;99514.22;5069458;28;20055;-71
2024/01/27 08:24:36;;;;;;;6.27;2.47;;;2.60;80.50;;;4.43;58.37;99522.06;5070120;28;20044;-71
2024/01/27 08:27:05;;;;;;;6.70;3.30;;;2.60;80.00;;;4.44;58.22;99526.38;5076640;28;20412;-70
2024/01/27 08:29:33;;;;;;;8.80;4.33;;;2.60;80.40;;;4.48;58.35;99530.59;5062909;28;20480;-69
2024/01/27 08:32:00;;;;;;;5.67;3.43;;;2.70;80.60;;;4.53;58.38;99529.41;5070740;28;20052;-69
2024/01/27 08:34:28;;;;;;;10.97;4.10;;;2.80;80.50;;;4.58;58.54;99513.38;5060835;28;20037;-69
2024/01/27 08:37:02;;;;;;;5.50;3.70;;;2.90;80.30;;;4.66;58.31;99510.34;5070960;28;20041;-70
2024/01/27 08:39:30;;;;;;;4.88;3.10;;;2.90;80.20;;;4.70;58.49;99509.25;5061280;28;20037;-70
2024/01/27 08:41:58;;;;;;;14.93;3.30;;;3.00;79.90;;;4.75;58.05;99509.88;5070359;28;20051;-69
2024/01/27 08:44:26;;;;;;;7.07;3.47;;;3.00;79.60;;;4.79;58.33;99513.19;5069985;28;20399;-69
2024/01/27 08:46:53;;;;;;;7.40;3.40;;;3.10;79.60;;;4.83;57.90;99520.03;5070628;28;20047;-69
2024/01/27 08:49:23;;;;;;;6.93;2.80;;;3.10;79.50;;;4.87;58.42;99511.03;5068972;28;20048;-68
2024/01/27 08:51:50;;;;;;;5.03;3.00;;;3.20;79.40;;;4.90;57.80;99509.09;5070340;28;20064;-69
2024/01/27 08:54:19;;;;;;;6.90;3.57;;;3.20;79.10;;;4.93;57.86;99513.34;5073952;28;20523;-69
2024/01/27 08:56:47;;;;;;;4.67;3.40;;;3.20;79.10;;;4.99;58.50;99518.31;5074888;28;20033;-69
2024/01/27 08:59:15;;;;;;;7.93;3.50;;;3.30;79.70;;;5.03;57.88;99519.84;5074775;28;20045;-68
2024/01/27 09:01:43;;;;;;;4.97;2.80;;;3.30;78.80;;;5.08;57.96;99520.47;5074330;28;20048;-68
2024/01/27 09:04:10;;;;;;;6.90;3.40;;;3.40;78.80;;;5.14;58.06;99514.00;5074258;28;20037;-69
2024/01/27 09:06:38;;;;;;;7.40;3.47;;;3.50;78.60;;;5.17;58.46;99511.19;5073261;28;20040;-68
2024/01/27 09:09:06;;;;;;;5.07;2.80;;;3.50;78.20;;;5.21;58.33;99509.25;5073900;28;20033;-69
2024/01/27 09:11:34;;;;;;;7.13;3.57;;;3.50;79.10;;;5.22;57.81;99509.16;5073892;28;20488;-67
2024/01/27 09:14:02;;;;;;;7.73;3.77;;;3.50;79.50;;;5.22;58.44;99514.44;5070772;28;20052;-68
2024/01/27 09:16:30;;;;;;;7.73;4.30;;;3.50;80.00;;;5.23;58.09;99521.41;5074023;28;20397;-68
2024/01/27 09:18:57;;;;;;;5.17;3.67;;;3.50;80.10;;;5.24;58.58;99524.94;5073003;28;20036;-68
2024/01/27 09:21:28;;;;;;;8.87;4.27;;;3.50;80.60;;;5.25;58.77;99527.50;5074001;28;20041;-68
2024/01/27 09:23:57;;;;;;;7.73;4.17;;;3.50;80.60;;;5.26;58.51;99534.47;5073545;28;20047;-67
2024/01/27 09:26:25;;;;;;;10.20;3.97;;;3.50;80.70;;;5.25;58.58;99532.78;5073537;28;20501;-68
2024/01/27 09:28:55;;;;;;;5.23;3.97;;;3.50;80.40;;;5.25;58.23;99538.06;5073854;28;20512;-67
2024/01/27 09:31:23;;;;;;;5.50;3.47;;;3.50;80.10;;;5.26;58.21;99545.03;5073542;28;20049;-68
2024/01/27 09:33:53;;;;;;;9.27;3.97;;;3.50;79.80;;;5.25;58.34;99538.06;5073250;28;20570;-67
2024/01/27 09:36:21;;;;;;;9.17;3.97;;;3.50;79.90;;;5.26;58.39;99539.75;5073793;28;20060;-67
2024/01/27 09:38:49;;;;;;;8.20;4.00;;;3.50;80.10;;;5.31;58.64;99547.44;5072770;28;20037;-69
2024/01/27 09:41:18;;;;;;;6.03;4.23;;;3.50;80.10;;;5.35;58.76;99546.34;5072258;28;20044;-70
2024/01/27 09:43:47;;;;;;;8.37;4.37;;;3.60;80.10;;;5.39;58.79;99563.75;5071418;28;20041;-67
2024/01/27 09:46:16;;;;;;;6.00;3.63;;;3.70;80.80;;;5.40;58.59;99556.66;5072227;28;20401;-68
2024/01/27 09:48:44;;;;;;;5.90;3.77;;;3.70;81.20;;;5.41;58.46;99551.31;5073483;28;20044;-68
2024/01/27 09:51:12;;;;;;;6.67;3.83;;;3.70;81.60;;;5.42;58.49;99552.16;5071870;28;20041;-68
2024/01/27 09:53:40;;;;;;;8.20;4.70;;;3.60;81.60;;;5.38;59.22;99551.47;5055279;28;20036;-68
2024/01/27 09:56:09;;;;;;;6.33;3.70;;;3.60;81.80;;;5.37;58.51;99557.69;5073374;28;20416;-68
2024/01/27 09:58:37;;;;;;;5.70;3.90;;;3.60;82.10;;;5.38;58.59;99550.59;5071828;28;20505;-67
2024/01/27 10:01:07;;;;;;;10.60;4.57;;;3.60;82.20;;;5.42;58.53;99554.78;5073308;28;20496;-68
2024/01/27 10:03:41;;;;;;;5.77;4.03;;;3.70;81.90;;;5.44;58.79;99547.63;5071448;28;20044;-68
2024/01/27 10:06:10;;;;;;;8.57;4.55;;;3.70;81.70;;;5.47;58.61;99553.63;5072179;28;20234;-68
2024/01/27 10:08:38;;;;;;;9.10;3.90;;;3.70;81.50;;;5.49;58.79;99541.16;5073245;28;20044;-70
2024/01/27 10:11:09;;;;;;;7.23;4.20;;;3.70;81.40;;;5.53;58.73;99550.63;5071747;28;20044;-70
2024/01/27 10:13:37;;;;;;;9.37;4.90;;;3.80;81.50;;;5.58;59.12;99558.31;5070858;28;20037;-69
2024/01/27 10:16:08;;;;;;;8.10;4.10;;;3.90;81.40;;;5.63;58.27;99558.91;5073768;28;20399;-69
2024/01/27 10:18:35;;;;;;;12.17;6.33;;;3.90;81.20;;;5.68;59.16;99559.53;5072781;28;20464;-68
2024/01/27 10:21:15;;;;;;;8.80;5.57;;;4.00;81.20;;;5.74;58.51;99558.34;5054677;28;20419;-68
2024/01/27 10:23:43;;;;;;;10.17;4.87;;;4.10;81.60;;;5.79;58.80;99558.94;5063406;28;20496;-70
2024/01/27 10:26:11;;;;;;;8.50;4.37;;;4.10;81.60;;;5.83;58.69;99555.16;5071543;28;20040;-69
2024/01/27 10:28:39;;;;;;;7.30;4.57;;;4.20;81.60;;;5.87;59.17;99558.50;5072569;28;20048;-69
2024/01/27 10:31:12;;;;;;;7.53;4.17;;;4.30;81.50;;;5.93;58.60;99552.88;5060687;28;20718;-68
2024/01/27 10:34:14;;;;;;;8.43;4.30;;;4.30;81.40;;;5.97;58.80;99551.81;5063610;28;20048;-68
2024/01/27 10:36:44;;;;;;;6.47;3.85;;;4.30;81.50;;;6.03;58.88;99551.47;5065569;28;20045;-68